Terminal Aerodrome Forecast
Issued by NWS

Home | Current Version | Previous Version | Text Only | Print | Product List | Glossary On
Versions: 1 2 3 4 5 6 7 8 9 10 11 12 13 14 15 16 17 18 19 20 21 22 23
000
FTUS46 KPDT 061737
TAFBDN
TAF
KBDN 061737Z 0618/0718 34010KT P6SM SCT040 BKN100
      TEMPO 0618/0620 BKN030 BKN050
     FM062200 34016G26KT P6SM SCT070 BKN080
      TEMPO 0622/0702 -TSRA BKN050CB BKN100
     FM070200 34010KT P6SM FEW070 BKN100=

USA.gov is the U.S. government's official web portal to all federal, state and local government web resources and services.